Time;durP1;ratioP1;P1;durP2;ratioP2;P2;SDS_P1;SDS_P2;PMS_P1;PMS_P2;Temp;Humidity;BMP_temperature;BMP_pressure;BME280_temperature;BME280_humidity;BME280_pressure;Samples;Min_cycle;Max_cycle;Signal;HPM_P1;HPM_P2
2023/04/24 00:00:36;;;;;;;0.70;0.70;;;;;;;11.61;87.70;96348.31;5054237;28;20041;-70
2023/04/24 00:03:03;;;;;;;0.75;0.75;;;;;;;11.62;88.00;96339.25;5047607;28;20090;-70
2023/04/24 00:05:31;;;;;;;0.57;0.57;;;;;;;11.59;87.93;96350.38;5057791;28;20044;-70
2023/04/24 00:07:58;;;;;;;0.43;0.43;;;;;;;11.59;87.62;96334.34;5049897;28;20045;-69
2023/04/24 00:10:26;;;;;;;0.60;0.60;;;;;;;11.59;87.88;96337.84;5045957;28;20044;-69
2023/04/24 00:12:55;;;;;;;0.63;0.63;;;;;;;11.63;87.59;96341.66;5047704;28;20044;-69
2023/04/24 00:15:23;;;;;;;0.65;0.65;;;;;;;11.61;87.93;96335.75;5056136;28;20041;-69
2023/04/24 00:17:51;;;;;;;0.60;0.60;;;;;;;11.49;88.30;96336.78;5053602;28;20040;-70
2023/04/24 00:20:19;;;;;;;0.52;0.52;;;;;;;11.57;87.70;96326.56;5050701;28;20072;-70
2023/04/24 00:22:46;;;;;;;0.57;0.57;;;;;;;11.56;87.73;96332.94;5047637;28;20093;-69
2023/04/24 00:25:14;;;;;;;0.77;0.77;;;;;;;11.42;88.59;96333.44;5053988;28;20048;-69
2023/04/24 00:27:41;;;;;;;0.50;0.50;;;;;;;11.37;88.83;96326.91;5059642;28;20057;-69
2023/04/24 00:30:11;;;;;;;0.57;0.57;;;;;;;11.36;89.36;96335.16;5045787;28;20041;-69
2023/04/24 00:32:38;;;;;;;0.52;0.52;;;;;;;11.45;89.16;96332.94;5045337;28;20107;-69
2023/04/24 00:35:07;;;;;;;0.50;0.50;;;;;;;11.43;88.74;96335.03;5056572;28;20131;-70
2023/04/24 00:37:34;;;;;;;0.47;0.47;;;;;;;11.39;89.13;96334.69;5060152;28;20044;-70
2023/04/24 00:40:02;;;;;;;0.57;0.57;;;;;;;11.32;89.38;96328.63;5035090;28;20558;-70
2023/04/24 00:42:30;;;;;;;0.15;0.15;;;;;;;11.32;89.57;96333.97;5047993;28;20455;-69
2023/04/24 00:44:57;;;;;;;0.73;0.73;;;;;;;11.32;89.21;96323.28;5057744;28;20088;-69
2023/04/24 00:47:26;;;;;;;0.50;0.50;;;;;;;11.33;89.25;96319.56;5056890;28;20495;-69
2023/04/24 00:49:54;;;;;;;0.50;0.50;;;;;;;11.35;88.95;96323.66;5049298;28;20086;-69
2023/04/24 00:52:24;;;;;;;0.70;0.70;;;;;;;11.36;89.17;96325.28;5057842;28;20119;-68
2023/04/24 00:54:51;;;;;;;0.55;0.55;;;;;;;11.37;88.75;96326.91;5058193;28;20041;-69
2023/04/24 00:57:19;;;;;;;0.50;0.50;;;;;;;11.37;88.39;96321.56;5046348;28;20341;-69
2023/04/24 00:59:47;;;;;;;0.40;0.40;;;;;;;11.43;87.68;96324.34;5051217;28;20041;-69
2023/04/24 01:02:15;;;;;;;0.50;0.50;;;;;;;11.48;87.23;96327.16;5047544;28;20058;-69
2023/04/24 01:04:44;;;;;;;0.68;0.68;;;;;;;11.45;87.61;96314.25;5063093;28;20044;-68
2023/04/24 01:07:12;;;;;;;0.10;0.10;;;;;;;11.47;87.41;96320.19;5044762;28;20420;-68
2023/04/24 01:09:41;;;;;;;0.57;0.57;;;;;;;11.52;86.78;96329.13;5052412;28;20060;-68
2023/04/24 01:12:09;;;;;;;0.10;0.10;;;;;;;11.46;86.85;96322.03;5043691;28;20470;-69
2023/04/24 01:14:38;;;;;;;0.77;0.77;;;;;;;11.46;87.34;96315.88;5046843;28;20037;-69
2023/04/24 01:17:05;;;;;;;0.50;0.50;;;;;;;11.46;86.78;96314.00;5049672;28;20103;-69
2023/04/24 01:19:33;;;;;;;0.50;0.50;;;;;;;11.38;86.88;96314.38;5057671;28;20045;-70
2023/04/24 01:22:03;;;;;;;0.50;0.50;;;;;;;11.47;86.83;96312.16;5062236;28;20445;-69
2023/04/24 01:24:32;;;;;;;0.10;0.10;;;;;;;11.47;86.48;96318.31;5045537;28;20400;-68
2023/04/24 01:27:01;;;;;;;0.57;0.57;;;;;;;11.54;86.71;96326.22;5053849;28;20044;-69
2023/04/24 01:29:28;;;;;;;0.68;0.68;;;;;;;11.57;86.35;96326.56;5042380;28;20053;-69
2023/04/24 01:31:58;;;;;;;0.50;0.50;;;;;;;11.61;86.33;96317.06;5056566;28;20040;-68
2023/04/24 01:34:26;;;;;;;0.60;0.60;;;;;;;11.61;86.11;96321.59;5047246;28;20414;-69
2023/04/24 01:36:53;;;;;;;0.50;0.50;;;;;;;11.70;86.32;96321.00;5049273;28;20036;-69
2023/04/24 01:39:23;;;;;;;0.70;0.70;;;;;;;11.64;85.56;96318.44;5055023;28;20103;-69
2023/04/24 01:41:52;;;;;;;0.65;0.65;;;;;;;11.58;85.74;96327.38;5047275;28;20523;-69
2023/04/24 01:44:19;;;;;;;0.57;0.57;;;;;;;11.56;85.50;96324.13;5056504;28;20056;-69
2023/04/24 01:46:48;;;;;;;0.70;0.70;;;;;;;11.51;85.82;96327.50;5046507;28;20469;-69
2023/04/24 01:49:15;;;;;;;0.70;0.70;;;;;;;11.50;85.98;96325.06;5051150;28;20122;-70
2023/04/24 01:51:45;;;;;;;0.60;0.60;;;;;;;11.44;85.94;96325.97;5042598;28;20079;-70
2023/04/24 01:54:13;;;;;;;0.63;0.63;;;;;;;11.46;85.61;96331.91;5044882;28;20049;-70
2023/04/24 01:56:42;;;;;;;0.68;0.68;;;;;;;11.42;86.09;96328.09;5048557;28;20154;-70
2023/04/24 01:59:12;;;;;;;0.50;0.50;;;;;;;11.37;86.00;96329.56;5063371;28;20041;-70
2023/04/24 02:01:39;;;;;;;0.52;0.52;;;;;;;11.35;86.08;96330.84;5048485;28;20046;-70
2023/04/24 02:04:08;;;;;;;0.73;0.73;;;;;;;11.34;86.09;96315.84;5060024;28;20090;-69
2023/04/24 02:06:36;;;;;;;0.57;0.57;;;;;;;11.35;85.86;96312.97;5056169;28;20053;-70
2023/04/24 02:09:04;;;;;;;0.63;0.63;;;;;;;11.28;86.04;96306.91;5059836;28;20036;-70
2023/04/24 02:11:31;;;;;;;0.70;0.70;;;;;;;11.31;86.36;96311.81;5042273;28;20048;-69
2023/04/24 02:13:59;;;;;;;0.60;0.60;;;;;;;11.30;85.96;96307.50;5054113;28;20086;-70
2023/04/24 02:16:30;;;;;;;0.70;0.70;;;;;;;11.32;86.01;96310.75;5049180;28;20056;-70
2023/04/24 02:18:57;;;;;;;0.70;0.70;;;;;;;11.25;85.80;96302.03;5054393;28;20048;-70
2023/04/24 02:21:25;;;;;;;0.65;0.65;;;;;;;11.26;85.75;96311.69;5049183;28;20392;-69
2023/04/24 02:23:52;;;;;;;0.50;0.50;;;;;;;11.31;86.02;96306.47;5058567;28;20041;-69
2023/04/24 02:26:20;;;;;;;0.70;0.70;;;;;;;11.20;85.74;96307.28;5049487;28;20581;-69
2023/04/24 02:28:48;;;;;;;0.50;0.50;;;;;;;11.17;86.17;96301.56;5057227;28;20049;-69
2023/04/24 02:31:16;;;;;;;0.55;0.55;;;;;;;11.14;86.21;96305.50;5047806;28;20049;-69
2023/04/24 02:33:44;;;;;;;0.60;0.60;;;;;;;11.19;86.01;96302.97;5048773;28;20029;-69
2023/04/24 02:36:13;;;;;;;0.60;0.60;;;;;;;11.20;86.12;96301.94;5046148;28;20139;-69
2023/04/24 02:38:41;;;;;;;0.65;0.65;;;;;;;11.17;85.38;96304.22;5051386;28;20061;-69
2023/04/24 02:41:08;;;;;;;0.45;0.45;;;;;;;11.10;85.96;96306.22;5055146;28;20500;-69
2023/04/24 02:43:36;;;;;;;0.73;0.73;;;;;;;11.06;85.88;96299.69;5058115;28;20537;-69
2023/04/24 02:46:04;;;;;;;0.60;0.60;;;;;;;11.05;86.03;96296.19;5051645;28;20566;-69
2023/04/24 02:48:31;;;;;;;0.32;0.32;;;;;;;11.04;86.04;96303.41;5045007;28;20381;-70
2023/04/24 02:51:00;;;;;;;0.52;0.52;;;;;;;11.07;85.93;96296.78;5046356;28;20130;-69
2023/04/24 02:53:29;;;;;;;0.57;0.57;;;;;;;11.16;85.47;96300.75;5054839;28;20050;-69
2023/04/24 02:55:57;;;;;;;0.60;0.60;;;;;;;11.08;85.92;96306.44;5041381;28;20044;-69
2023/04/24 02:58:24;;;;;;;0.63;0.63;;;;;;;10.98;86.12;96307.00;5045231;28;20505;-69
2023/04/24 03:00:54;;;;;;;0.45;0.45;;;;;;;11.00;85.68;96304.09;5043459;28;20131;-70
2023/04/24 03:03:22;;;;;;;0.82;0.82;;;;;;;10.96;85.98;96308.25;5054679;28;20131;-70
2023/04/24 03:05:50;;;;;;;0.85;0.85;;;;;;;11.00;86.67;96304.09;5056814;28;20045;-70
2023/04/24 03:08:19;;;;;;;0.50;0.50;;;;;;;11.06;85.78;96305.84;5039705;28;20071;-69
2023/04/24 03:10:47;;;;;;;0.60;0.60;;;;;;;11.04;85.52;96313.25;5055434;28;20107;-69
2023/04/24 03:13:16;;;;;;;0.60;0.60;;;;;;;10.92;85.70;96301.75;5046828;28;20033;-69
2023/04/24 03:15:43;;;;;;;0.68;0.68;;;;;;;10.92;85.49;96293.72;5060981;28;20546;-69
2023/04/24 03:18:11;;;;;;;0.70;0.70;;;;;;;10.90;86.07;96293.94;5045577;28;20596;-69
2023/04/24 03:20:39;;;;;;;0.50;0.50;;;;;;;10.88;85.81;96289.91;5052062;28;20072;-69
2023/04/24 03:23:07;;;;;;;0.63;0.63;;;;;;;10.80;85.68;96285.69;5043661;28;20085;-69
2023/04/24 03:25:38;;;;;;;1.00;1.00;;;;;;;10.75;86.10;96282.91;5056615;28;20127;-69
2023/04/24 03:28:06;;;;;;;0.57;0.57;;;;;;;10.69;85.75;96278.50;5048535;28;20059;-69
2023/04/24 03:30:39;;;;;;;0.63;0.63;;;;;;;10.71;86.04;96283.56;5055588;28;20130;-68
2023/04/24 03:33:08;;;;;;;0.50;0.50;;;;;;;10.70;86.12;96265.94;5046233;28;20156;-68
2023/04/24 03:35:38;;;;;;;0.40;0.40;;;;;;;10.68;85.97;96273.38;5042154;28;20061;-68
2023/04/24 03:38:10;;;;;;;0.70;0.70;;;;;;;10.70;85.92;96271.28;5048693;28;20067;-69
2023/04/24 03:40:51;;;;;;;0.68;0.68;;;;;;;10.69;85.58;96272.34;5049559;28;20139;-68
2023/04/24 03:43:37;;;;;;;0.63;0.63;;;;;;;10.68;85.84;96271.53;5048813;28;20065;-68
2023/04/24 03:46:06;;;;;;;0.50;0.50;;;;;;;10.65;85.67;96270.13;5042586;28;20033;-68
2023/04/24 03:48:38;;;;;;;0.60;0.60;;;;;;;10.62;85.52;96273.22;5043932;28;20144;-69
2023/04/24 03:51:07;;;;;;;0.70;0.70;;;;;;;10.60;86.21;96269.16;5049484;28;20049;-69
2023/04/24 03:53:36;;;;;;;0.60;0.60;;;;;;;10.60;86.21;96280.66;5054370;28;20127;-68
2023/04/24 03:56:05;;;;;;;0.45;0.45;;;;;;;10.54;85.71;96268.22;5042025;28;20065;-68
2023/04/24 03:58:34;;;;;;;0.70;0.70;;;;;;;10.50;86.17;96271.56;5054937;28;20453;-69
2023/04/24 04:01:02;;;;;;;0.47;0.47;;;;;;;10.48;86.13;96277.16;5049543;28;20160;-68
2023/04/24 04:03:43;;;;;;;0.57;0.57;;;;;;;10.46;85.96;96278.41;5059316;28;20056;-68
2023/04/24 04:06:12;;;;;;;0.57;0.57;;;;;;;10.45;86.05;96266.91;5053384;28;20041;-69
2023/04/24 04:08:41;;;;;;;0.52;0.52;;;;;;;10.46;86.08;96278.41;5040966;28;20040;-68
2023/04/24 04:11:11;;;;;;;0.70;0.70;;;;;;;10.44;86.09;96278.63;5048306;28;20095;-68
2023/04/24 04:13:38;;;;;;;0.70;0.70;;;;;;;10.42;86.18;96280.69;5049323;28;20040;-68
2023/04/24 04:16:06;;;;;;;0.60;0.60;;;;;;;10.43;86.05;96279.66;5056088;28;20049;-68
2023/04/24 04:18:34;;;;;;;0.60;0.60;;;;;;;10.45;86.30;96282.09;5044738;28;20048;-68
2023/04/24 04:21:06;;;;;;;0.60;0.60;;;;;;;10.50;85.65;96284.91;5063184;28;20496;-68
2023/04/24 04:23:34;;;;;;;0.52;0.52;;;;;;;10.50;85.49;96280.38;5050752;28;20045;-68
2023/04/24 04:26:12;;;;;;;0.70;0.70;;;;;;;10.53;85.68;96284.44;5052514;28;20087;-70
2023/04/24 04:28:52;;;;;;;0.63;0.63;;;;;;;10.53;85.51;96276.44;5045221;28;20397;-68
2023/04/24 04:31:20;;;;;;;0.60;0.60;;;;;;;10.56;85.54;96276.81;5055625;28;20057;-71
2023/04/24 04:33:49;;;;;;;0.63;0.63;;;;;;;10.54;85.36;96281.56;5050467;28;20144;-68
2023/04/24 04:36:17;;;;;;;0.63;0.63;;;;;;;10.46;85.73;96281.06;5049974;28;20508;-70
2023/04/24 04:38:49;;;;;;;0.13;0.13;;;;;;;10.41;85.52;96283.59;5049084;28;20738;-69
2023/04/24 04:41:40;;;;;;;0.60;0.60;;;;;;;10.43;85.88;96281.50;5055229;28;20117;-68
2023/04/24 04:44:09;;;;;;;0.82;0.82;;;;;;;10.36;86.01;96276.28;5051116;28;20045;-69
2023/04/24 04:46:38;;;;;;;0.80;0.80;;;;;;;10.40;85.88;96282.78;5049939;28;20047;-69
2023/04/24 04:49:13;;;;;;;0.80;0.80;;;;;;;10.42;86.06;96275.38;5051911;28;20057;-69
2023/04/24 04:51:40;;;;;;;0.10;0.10;;;;;;;10.32;86.32;96277.75;5043961;28;20439;-68
2023/04/24 04:54:09;;;;;;;0.70;0.70;;;;;;;10.35;86.12;96273.84;5056456;28;20051;-69
2023/04/24 04:56:39;;;;;;;0.60;0.60;;;;;;;10.30;86.05;96282.50;5054633;28;20107;-69
2023/04/24 04:59:07;;;;;;;0.68;0.68;;;;;;;10.33;85.88;96281.25;5052190;28;20107;-69
2023/04/24 05:01:37;;;;;;;0.52;0.52;;;;;;;10.35;85.67;96276.50;5054058;28;20041;-69
2023/04/24 05:04:07;;;;;;;0.68;0.68;;;;;;;10.34;85.80;96289.03;5061241;28;20491;-69
2023/04/24 05:06:35;;;;;;;0.80;0.80;;;;;;;10.38;85.13;96276.06;5042956;28;20037;-69
2023/04/24 05:09:04;;;;;;;0.55;0.55;;;;;;;10.38;85.00;96279.53;5053107;28;20064;-68
2023/04/24 05:11:44;;;;;;;0.93;0.93;;;;;;;10.46;84.76;96286.41;5050603;28;20045;-71
2023/04/24 05:14:13;;;;;;;0.57;0.57;;;;;;;10.53;84.42;96279.94;5052496;28;20053;-69
2023/04/24 05:16:42;;;;;;;0.98;0.98;;;;;;;10.53;84.35;96282.59;5057997;28;20720;-69
2023/04/24 05:19:13;;;;;;;0.75;0.75;;;;;;;10.53;83.92;96290.59;5065252;28;20048;-69
2023/04/24 05:21:41;;;;;;;0.57;0.57;;;;;;;10.60;83.69;96287.84;5058335;28;20505;-69
2023/04/24 05:24:10;;;;;;;0.73;0.73;;;;;;;10.61;83.55;96292.13;5058100;28;20128;-70
2023/04/24 05:27:05;;;;;;;0.60;0.60;;;;;;;10.62;83.13;96294.56;5052473;28;20507;-69
2023/04/24 05:29:38;;;;;;;0.68;0.68;;;;;;;10.61;83.52;96295.63;5046186;28;20049;-69
2023/04/24 05:32:06;;;;;;;0.60;0.60;;;;;;;10.61;83.94;96292.94;5047462;28;20048;-69
2023/04/24 05:34:34;;;;;;;0.65;0.65;;;;;;;10.63;83.65;96282.06;5060941;28;20045;-69
2023/04/24 05:37:03;;;;;;;0.70;0.70;;;;;;;10.60;83.74;96291.31;5060792;28;20035;-69
2023/04/24 05:39:30;;;;;;;0.60;0.60;;;;;;;10.62;83.81;96297.25;5054304;28;20064;-69
2023/04/24 05:42:01;;;;;;;0.75;0.75;;;;;;;10.62;83.75;96286.56;5061150;28;20094;-69
2023/04/24 05:44:30;;;;;;;0.60;0.60;;;;;;;10.59;84.10;96286.19;5058194;28;20048;-68
2023/04/24 05:46:57;;;;;;;0.85;0.85;;;;;;;10.55;84.62;96287.72;5059248;28;20071;-69
2023/04/24 05:49:25;;;;;;;0.73;0.73;;;;;;;10.58;84.72;96289.94;5053240;28;20059;-69
2023/04/24 05:51:53;;;;;;;0.60;0.60;;;;;;;10.61;84.72;96292.94;5054978;28;20044;-69
2023/04/24 05:54:20;;;;;;;0.82;0.82;;;;;;;10.64;84.70;96291.69;5062976;28;20047;-69
2023/04/24 05:56:48;;;;;;;0.75;0.75;;;;;;;10.70;84.57;96295.28;5053666;28;20045;-69
2023/04/24 05:59:24;;;;;;;0.73;0.73;;;;;;;10.72;84.48;96293.22;5057270;28;20044;-69
2023/04/24 06:01:53;;;;;;;0.70;0.70;;;;;;;10.72;84.60;96296.69;5056354;28;20037;-70
2023/04/24 06:04:23;;;;;;;0.52;0.52;;;;;;;10.74;84.51;96289.28;5059677;28;20105;-69
2023/04/24 06:06:55;;;;;;;0.75;0.75;;;;;;;10.80;84.09;96291.03;5056990;28;20059;-69
2023/04/24 06:09:23;;;;;;;0.50;0.50;;;;;;;10.80;84.23;96287.53;5059852;28;20074;-70
2023/04/24 06:11:52;;;;;;;0.60;0.60;;;;;;;10.82;84.26;96286.28;5061861;28;20503;-69
2023/04/24 06:14:22;;;;;;;0.20;0.20;;;;;;;10.91;83.85;96286.75;5052755;28;20500;-70
2023/04/24 06:17:14;;;;;;;0.70;0.70;;;;;;;10.95;84.35;96298.63;5033278;28;20048;-69
2023/04/24 06:19:42;;;;;;;0.60;0.60;;;;;;;10.96;83.49;96285.03;5061796;28;20044;-69
2023/04/24 06:22:10;;;;;;;0.85;0.85;;;;;;;10.97;83.72;96284.00;5060033;28;20052;-69
2023/04/24 06:24:38;;;;;;;0.55;0.55;;;;;;;10.99;83.31;96281.09;5058502;28;20529;-69
2023/04/24 06:27:05;;;;;;;0.55;0.55;;;;;;;11.02;83.02;96275.28;5056397;28;20042;-69
2023/04/24 06:29:33;;;;;;;0.80;0.80;;;;;;;11.09;82.97;96278.69;5063053;28;20059;-69
2023/04/24 06:32:01;;;;;;;0.60;0.60;;;;;;;11.11;82.42;96284.59;5051619;28;20050;-69
2023/04/24 06:34:30;;;;;;;0.70;0.70;;;;;;;11.17;81.90;96272.19;5065013;28;20040;-71
2023/04/24 06:36:58;;;;;;;0.73;0.73;;;;;;;11.18;80.92;96279.97;5049415;28;20040;-69
2023/04/24 06:39:25;;;;;;;0.10;0.10;;;;;;;11.21;80.82;96284.03;5055436;28;20475;-69
2023/04/24 06:41:53;;;;;;;0.65;0.65;;;;;;;11.18;79.70;96277.31;5068846;28;20040;-69
2023/04/24 06:44:20;;;;;;;0.88;0.88;;;;;;;11.23;79.47;96282.75;5056147;28;20180;-69
2023/04/24 06:46:48;;;;;;;0.82;0.82;;;;;;;11.34;79.45;96291.81;5066277;28;20072;-69
2023/04/24 06:49:16;;;;;;;0.50;0.50;;;;;;;11.35;77.19;96290.78;5056185;28;20500;-69
2023/04/24 06:51:45;;;;;;;0.57;0.57;;;;;;;11.32;77.16;96283.22;5053619;28;20040;-69
2023/04/24 06:54:12;;;;;;;0.50;0.50;;;;;;;11.32;77.30;96286.69;5060735;28;20053;-69
2023/04/24 06:56:40;;;;;;;0.90;0.90;;;;;;;11.40;76.77;96285.56;5052085;28;20091;-69
2023/04/24 06:59:07;;;;;;;0.55;0.55;;;;;;;11.44;76.72;96286.72;5063694;28;20508;-68
2023/04/24 07:01:35;;;;;;;0.45;0.45;;;;;;;11.57;76.37;96288.34;5051115;28;20099;-69
2023/04/24 07:04:02;;;;;;;0.60;0.60;;;;;;;11.53;76.20;96282.63;5065198;28;20048;-69
2023/04/24 07:06:30;;;;;;;0.55;0.55;;;;;;;11.61;76.46;96276.16;5052725;28;20095;-69
2023/04/24 07:09:00;;;;;;;0.80;0.80;;;;;;;11.69;75.22;96265.91;5047384;28;20044;-69
2023/04/24 07:11:29;;;;;;;0.70;0.70;;;;;;;11.67;75.70;96277.88;5064267;28;20048;-69
2023/04/24 07:13:56;;;;;;;0.50;0.50;;;;;;;11.67;74.85;96276.03;5047930;28;20044;-68
2023/04/24 07:16:24;;;;;;;0.75;0.75;;;;;;;11.76;75.49;96289.88;5058642;28;20037;-69
2023/04/24 07:18:51;;;;;;;0.63;0.63;;;;;;;11.88;75.68;96287.19;5055327;28;20519;-69
2023/04/24 07:21:19;;;;;;;0.65;0.65;;;;;;;11.86;75.37;96281.25;5063557;28;20103;-69
2023/04/24 07:23:46;;;;;;;0.50;0.50;;;;;;;11.98;76.01;96285.53;5060374;28;20087;-69
2023/04/24 07:26:15;;;;;;;0.63;0.63;;;;;;;12.11;75.21;96282.59;5056327;28;20049;-69
2023/04/24 07:28:43;;;;;;;0.47;0.47;;;;;;;12.07;74.39;96280.63;5061826;28;20102;-69
2023/04/24 07:31:12;;;;;;;0.65;0.65;;;;;;;12.11;74.48;96285.28;5059108;28;20093;-69
2023/04/24 07:33:39;;;;;;;0.50;0.50;;;;;;;12.21;73.07;96282.00;5062614;28;20045;-68
2023/04/24 07:36:07;;;;;;;0.20;0.20;;;;;;;12.22;74.14;96278.28;5059801;28;20442;-70
2023/04/24 07:38:34;;;;;;;0.45;0.45;;;;;;;12.18;73.45;96293.16;5057298;28;20495;-68
2023/04/24 07:41:02;;;;;;;0.77;0.77;;;;;;;12.17;73.70;96274.66;5044734;28;20049;-68
2023/04/24 07:43:31;;;;;;;0.68;0.68;;;;;;;12.16;73.57;96286.41;5066064;28;20040;-69
2023/04/24 07:45:58;;;;;;;0.63;0.63;;;;;;;12.16;73.61;96295.25;5060421;28;20045;-69
2023/04/24 07:48:26;;;;;;;0.55;0.55;;;;;;;12.20;73.60;96290.25;5054371;28;20539;-68
2023/04/24 07:50:54;;;;;;;0.52;0.52;;;;;;;12.21;73.65;96299.91;5058749;28;20447;-69
2023/04/24 07:53:21;;;;;;;0.88;0.88;;;;;;;12.23;73.29;96292.47;5059463;28;20098;-70
2023/04/24 07:55:49;;;;;;;0.63;0.63;;;;;;;12.28;73.07;96305.94;5053367;28;20557;-69
2023/04/24 07:58:16;;;;;;;0.80;0.80;;;;;;;12.25;73.28;96301.06;5058359;28;20049;-68
2023/04/24 08:00:46;;;;;;;0.68;0.68;;;;;;;12.26;73.19;96302.66;5060822;28;20059;-69
2023/04/24 08:03:13;;;;;;;0.80;0.80;;;;;;;12.14;72.45;96305.41;5064170;28;20048;-68
2023/04/24 08:05:42;;;;;;;0.70;0.70;;;;;;;12.13;72.68;96309.94;5054063;28;20106;-69
2023/04/24 08:08:10;;;;;;;0.47;0.47;;;;;;;12.08;72.94;96295.63;5053886;28;20120;-69
2023/04/24 08:10:38;;;;;;;0.70;0.70;;;;;;;12.19;72.76;96310.03;5062663;28;20044;-69
2023/04/24 08:13:07;;;;;;;0.55;0.55;;;;;;;12.15;72.24;96303.53;5051491;28;20037;-69
2023/04/24 08:15:35;;;;;;;0.50;0.50;;;;;;;12.09;73.04;96305.28;5064964;28;20044;-68
2023/04/24 08:18:04;;;;;;;0.60;0.60;;;;;;;12.14;73.13;96308.06;5052112;28;20063;-69
2023/04/24 08:20:32;;;;;;;0.68;0.68;;;;;;;12.16;73.51;96319.31;5063517;28;20045;-69
2023/04/24 08:22:59;;;;;;;0.57;0.57;;;;;;;11.99;73.96;96315.75;5054996;28;20053;-69
2023/04/24 08:25:27;;;;;;;0.45;0.45;;;;;;;11.93;74.31;96324.75;5057066;28;20045;-69
2023/04/24 08:27:54;;;;;;;0.85;0.85;;;;;;;11.87;74.16;96323.78;5055514;28;20079;-70
2023/04/24 08:30:23;;;;;;;0.15;0.15;;;;;;;11.86;74.86;96335.53;5062465;28;20416;-71
2023/04/24 08:32:50;;;;;;;0.10;0.10;;;;;;;11.91;74.23;96330.31;5056085;28;20444;-69
2023/04/24 08:35:19;;;;;;;0.60;0.60;;;;;;;12.06;73.82;96327.94;5054950;28;20462;-68
2023/04/24 08:37:47;;;;;;;0.60;0.60;;;;;;;12.22;71.86;96317.59;5055085;28;20041;-69
2023/04/24 08:40:16;;;;;;;0.50;0.50;;;;;;;12.31;72.26;96337.56;5054811;28;20048;-68
2023/04/24 08:42:44;;;;;;;0.13;0.13;;;;;;;12.33;71.70;96338.16;5059651;28;20397;-68
2023/04/24 08:45:13;;;;;;;0.75;0.75;;;;;;;12.22;70.74;96355.03;5062193;28;20052;-68
2023/04/24 08:47:41;;;;;;;0.10;0.10;;;;;;;12.07;68.12;96342.13;5058454;28;20465;-68
2023/04/24 08:50:09;;;;;;;0.22;0.22;;;;;;;12.19;67.49;96360.84;5062069;28;20491;-68
2023/04/24 08:52:38;;;;;;;0.82;0.82;;;;;;;12.12;64.82;96359.13;5060166;28;20454;-69
2023/04/24 08:55:06;;;;;;;0.50;0.50;;;;;;;12.07;64.28;96359.00;5056838;28;20535;-69
2023/04/24 08:57:35;;;;;;;0.60;0.60;;;;;;;12.15;63.33;96357.81;5058361;28;20037;-69
2023/04/24 09:00:04;;;;;;;0.57;0.57;;;;;;;12.07;63.27;96359.00;5059016;28;20048;-68
2023/04/24 09:02:34;;;;;;;0.60;0.60;;;;;;;12.17;63.51;96361.06;5062882;28;20258;-69
2023/04/24 09:05:02;;;;;;;0.57;0.57;;;;;;;12.08;61.29;96357.97;5062315;28;20075;-69
2023/04/24 09:07:31;;;;;;;0.65;0.65;;;;;;;12.04;60.68;96362.13;5059736;28;20048;-68
2023/04/24 09:10:00;;;;;;;0.57;0.57;;;;;;;12.07;60.39;96366.22;5055264;28;20036;-68
2023/04/24 09:12:27;;;;;;;0.50;0.50;;;;;;;12.12;60.59;96369.81;5057861;28;20052;-69
2023/04/24 09:14:55;;;;;;;0.50;0.50;;;;;;;12.21;60.47;96370.28;5064206;28;20052;-68
2023/04/24 09:17:23;;;;;;;0.60;0.60;;;;;;;12.37;61.06;96366.84;5063810;28;20049;-68
2023/04/24 09:19:51;;;;;;;0.60;0.60;;;;;;;12.49;59.93;96361.47;5059769;28;20049;-69
2023/04/24 09:22:18;;;;;;;0.65;0.65;;;;;;;12.57;59.80;96352.25;5047727;28;20049;-69
2023/04/24 09:24:46;;;;;;;0.73;0.73;;;;;;;12.72;59.26;96373.97;5058774;28;20056;-69
2023/04/24 09:27:17;;;;;;;0.70;0.70;;;;;;;12.74;59.32;96377.25;5062900;28;20045;-68
2023/04/24 09:29:54;;;;;;;0.57;0.57;;;;;;;12.73;59.48;96379.09;5061614;28;20525;-67
2023/04/24 09:32:24;;;;;;;0.70;0.70;;;;;;;13.04;58.35;96367.09;5054698;28;20111;-69
2023/04/24 09:35:07;;;;;;;0.57;0.57;;;;;;;13.01;58.37;96378.28;5069103;28;20056;-69
2023/04/24 09:37:36;;;;;;;0.47;0.47;;;;;;;12.93;58.41;96373.31;5057464;28;20107;-70
2023/04/24 09:40:12;;;;;;;0.65;0.65;;;;;;;12.72;59.26;96368.63;5057260;28;20052;-69
2023/04/24 09:42:41;;;;;;;0.20;0.20;;;;;;;12.93;58.13;96372.50;5062850;28;20450;-69
2023/04/24 09:45:12;;;;;;;0.50;0.50;;;;;;;12.85;57.22;96373.72;5061052;28;20056;-69
2023/04/24 09:47:43;;;;;;;0.50;0.50;;;;;;;12.92;56.61;96362.84;5060407;28;20040;-69
2023/04/24 09:50:13;;;;;;;0.73;0.73;;;;;;;13.14;57.46;96375.34;5060873;28;20496;-69
2023/04/24 09:52:42;;;;;;;0.50;0.50;;;;;;;13.23;54.85;96379.25;5062013;28;20045;-69
2023/04/24 09:55:17;;;;;;;0.40;0.40;;;;;;;13.11;53.86;96383.00;5064405;28;20075;-69
2023/04/24 09:57:51;;;;;;;0.40;0.40;;;;;;;13.18;53.81;96389.09;5063104;28;20562;-69
2023/04/24 10:00:28;;;;;;;0.43;0.43;;;;;;;13.19;53.00;96377.28;5048673;28;20072;-69
2023/04/24 10:02:57;;;;;;;0.63;0.63;;;;;;;13.08;53.64;96408.41;5061716;28;20037;-69
2023/04/24 10:05:26;;;;;;;0.57;0.57;;;;;;;12.68;54.01;96392.38;5064418;28;20080;-69
2023/04/24 10:07:58;;;;;;;0.82;0.82;;;;;;;12.59;54.80;96387.63;5058701;28;20080;-69
2023/04/24 10:10:25;;;;;;;0.47;0.47;;;;;;;12.57;55.95;96395.91;5064485;28;20086;-70
2023/04/24 10:12:55;;;;;;;0.70;0.70;;;;;;;12.62;55.08;96379.97;5057005;28;20090;-68
2023/04/24 10:15:23;;;;;;;0.75;0.75;;;;;;;12.68;55.88;96383.53;5065788;28;20044;-69
2023/04/24 10:17:53;;;;;;;0.80;0.80;;;;;;;12.87;54.90;96385.78;5056425;28;20044;-69
2023/04/24 10:20:22;;;;;;;0.77;0.77;;;;;;;12.91;54.88;96394.16;5061602;28;20052;-69
2023/04/24 10:22:51;;;;;;;0.60;0.60;;;;;;;12.72;55.56;96388.19;5061375;28;20051;-69
2023/04/24 10:25:20;;;;;;;0.65;0.65;;;;;;;12.97;55.70;96385.19;5052272;28;20078;-69
2023/04/24 10:27:49;;;;;;;0.85;0.85;;;;;;;13.07;54.55;96392.59;5054975;28;20069;-69
2023/04/24 10:30:19;;;;;;;0.75;0.75;;;;;;;12.84;53.21;96404.22;5064704;28;20087;-68
2023/04/24 10:32:47;;;;;;;0.50;0.50;;;;;;;12.92;53.13;96385.09;5056727;28;20086;-69
2023/04/24 10:35:15;;;;;;;0.60;0.60;;;;;;;13.03;50.57;96383.41;5065787;28;20131;-70
2023/04/24 10:37:45;;;;;;;0.73;0.73;;;;;;;13.05;50.81;96395.53;5054209;28;20404;-69
2023/04/24 10:40:18;;;;;;;0.65;0.65;;;;;;;13.14;50.49;96395.97;5053356;28;20057;-68
2023/04/24 10:42:48;;;;;;;0.73;0.73;;;;;;;13.36;50.09;96396.09;5059935;28;20045;-70
2023/04/24 10:45:22;;;;;;;0.50;0.50;;;;;;;13.34;49.29;96396.34;5061807;28;20098;-68
2023/04/24 10:47:54;;;;;;;0.70;0.70;;;;;;;13.53;49.66;96389.69;5063831;28;20095;-68
2023/04/24 10:50:21;;;;;;;1.00;1.00;;;;;;;13.48;48.65;96394.16;5058340;28;20064;-68
2023/04/24 10:52:51;;;;;;;0.60;0.60;;;;;;;13.56;48.94;96397.25;5060419;28;20106;-68
2023/04/24 10:55:40;;;;;;;0.65;0.65;;;;;;;13.75;48.98;96413.91;5052889;28;20050;-70
2023/04/24 10:58:07;;;;;;;0.50;0.50;;;;;;;13.76;48.68;96410.19;5055480;28;20098;-68
2023/04/24 11:00:40;;;;;;;1.05;1.05;;;;;;;13.87;48.59;96413.84;5062552;28;20051;-68
2023/04/24 11:03:13;;;;;;;0.50;0.50;;;;;;;14.05;49.05;96407.38;5063647;28;20051;-69
2023/04/24 11:06:00;;;;;;;0.70;0.70;;;;;;;13.73;48.39;96404.47;5057291;28;20042;-70
2023/04/24 11:08:30;;;;;;;0.65;0.65;;;;;;;13.76;48.68;96404.00;5063863;28;20056;-70
2023/04/24 11:11:02;;;;;;;0.63;0.63;;;;;;;14.29;47.52;96400.78;5054009;28;20497;-70
2023/04/24 11:14:10;;;;;;;0.32;0.32;;;;;;;14.33;46.87;96416.13;5056006;28;20496;-68
2023/04/24 11:16:47;;;;;;;0.50;0.50;;;;;;;13.81;47.76;96414.78;5069676;28;20056;-69
2023/04/24 11:19:24;;;;;;;0.95;0.95;;;;;;;13.87;48.30;96416.53;5064928;28;20098;-68
2023/04/24 11:22:00;;;;;;;0.50;0.50;;;;;;;14.16;48.75;96415.34;5061303;28;20057;-69
2023/04/24 11:24:30;;;;;;;0.50;0.50;;;;;;;14.33;48.58;96413.44;5061175;28;20044;-68
2023/04/24 11:26:59;;;;;;;0.40;0.40;;;;;;;14.45;46.87;96420.59;5048606;28;20074;-70
2023/04/24 11:29:44;;;;;;;0.00;0.00;;;;;;;13.86;46.93;96418.38;5066449;28;20403;-68
2023/04/24 11:32:24;;;;;;;0.60;0.60;;;;;;;13.65;48.10;96426.34;5053382;28;20103;-68
2023/04/24 11:34:53;;;;;;;0.10;0.10;;;;;;;13.40;48.91;96416.78;5061668;28;20391;-68
2023/04/24 11:37:20;;;;;;;0.55;0.55;;;;;;;13.50;49.26;96429.56;5061267;28;20037;-69
2023/04/24 11:39:51;;;;;;;0.55;0.55;;;;;;;13.53;48.76;96435.25;5061277;28;20091;-69
2023/04/24 11:42:19;;;;;;;0.43;0.43;;;;;;;13.54;48.68;96434.22;5053979;28;20045;-70
2023/04/24 11:44:48;;;;;;;0.10;0.10;;;;;;;13.90;48.36;96430.25;5051246;28;20412;-68